Time;durP1;ratioP1;P1;durP2;ratioP2;P2;SDS_P1;SDS_P2;PMS_P1;PMS_P2;Temp;Humidity;BMP_temperature;BMP_pressure;BME280_temperature;BME280_humidity;BME280_pressure;Samples;Min_cycle;Max_cycle;Signal;HPM_P1;HPM_P2
2022/06/14 00:03:09;;;;;;;;;10.60;8.00;;;;;20.72;40.33;101574.16;4978228;28;45300;-50
2022/06/14 00:05:34;;;;;;;;;5.50;5.50;;;;;20.79;40.11;101577.59;4978211;28;45644;-50
2022/06/14 00:08:00;;;;;;;;;5.00;5.00;;;;;20.86;39.95;101580.19;4978167;28;46537;-52
2022/06/14 00:10:25;;;;;;;;;6.25;5.50;;;;;20.87;39.98;101575.47;4978003;28;45244;-52
2022/06/14 00:12:51;;;;;;;;;6.00;4.50;;;;;20.80;40.07;101573.69;4977704;28;45311;-51
2022/06/14 00:15:17;;;;;;;;;6.00;6.00;;;;;20.78;39.98;101575.06;4978377;28;46182;-51
2022/06/14 00:17:43;;;;;;;;;6.00;5.00;;;;;20.77;39.75;101565.88;4978538;28;46325;-52
2022/06/14 00:20:09;;;;;;;;;8.50;7.25;;;;;20.63;39.85;101537.53;4997624;28;45342;-56
2022/06/14 00:22:35;;;;;;;;;6.00;6.00;;;;;20.72;39.61;101557.44;4997794;28;45438;-55
2022/06/14 00:25:00;;;;;;;;;4.75;4.75;;;;;20.74;39.75;101576.72;4997374;28;45423;-56
2022/06/14 00:27:26;;;;;;;;;6.50;6.50;;;;;20.71;39.66;101558.53;4997642;28;46379;-51
2022/06/14 00:29:51;;;;;;;;;6.50;6.00;;;;;20.69;39.64;101567.16;4995663;28;45503;-51
2022/06/14 00:32:17;;;;;;;;;6.25;6.25;;;;;20.71;39.87;101567.72;4997906;28;45461;-51
2022/06/14 00:34:42;;;;;;;;;5.00;5.00;;;;;20.66;39.58;101548.16;4997613;28;45373;-50
2022/06/14 00:37:16;;;;;;;;;8.50;5.75;;;;;20.73;39.53;101567.47;4997156;28;46492;-50
2022/06/14 00:39:42;;;;;;;;;6.00;6.00;;;;;20.78;39.57;101580.63;4997154;28;45349;-50
2022/06/14 00:42:19;;;;;;;;;4.75;4.00;;;;;20.74;39.65;101576.72;4997065;28;45311;-53
2022/06/14 00:45:29;;;;;;;;;4.40;4.40;;;;;20.63;39.82;101576.56;4997395;28;45895;-52
2022/06/14 00:48:07;;;;;;;;;3.60;3.60;;;;;20.34;39.97;101559.19;4996671;28;47011;-50
2022/06/14 00:50:38;;;;;;;;;4.00;4.00;;;;;20.36;40.03;101571.75;5028063;28;45392;-50
2022/06/14 00:53:06;;;;;;;;;6.00;6.00;;;;;20.43;40.22;101579.91;4996970;28;45408;-51
2022/06/14 00:55:42;;;;;;;;;4.60;4.60;;;;;20.28;40.54;101573.03;4997086;28;45671;-51
2022/06/14 00:58:13;;;;;;;;;4.80;4.80;;;;;20.11;40.41;101545.22;4995322;28;46045;-51
2022/06/14 01:00:47;;;;;;;;;3.80;3.80;;;;;20.09;40.48;101533.50;4996815;28;45345;-51
2022/06/14 01:03:25;;;;;;;;;4.80;4.40;;;;;20.22;40.22;101570.47;5028209;28;45371;-50
2022/06/14 01:06:05;;;;;;;;;4.40;3.60;;;;;20.15;40.67;101573.41;4996128;28;45446;-53
2022/06/14 01:08:31;;;;;;;;;4.20;4.20;;;;;20.18;40.51;101568.16;5024778;28;46227;-50
2022/06/14 01:10:56;;;;;;;;;4.25;4.25;;;;;20.10;40.81;101567.75;4996530;28;45402;-55
2022/06/14 01:13:23;;;;;;;;;5.75;4.25;;;;;20.06;41.01;101552.69;4995135;28;45356;-52
2022/06/14 01:15:49;;;;;;;;;6.00;4.40;;;;;20.06;41.25;101572.19;4996830;28;45339;-50
2022/06/14 01:18:14;;;;;;;;;8.80;7.20;;;;;19.89;40.65;101532.06;5010815;28;46255;-52
2022/06/14 01:20:40;;;;;;;;;6.75;6.75;;;;;20.08;41.05;101556.91;4975548;28;45401;-56
2022/06/14 01:23:06;;;;;;;;;7.50;6.25;;;;;20.16;41.02;101559.25;4977007;28;45438;-56
2022/06/14 01:25:33;;;;;;;;;7.00;7.00;;;;;20.05;41.18;101543.47;4975304;28;45503;-54
2022/06/14 01:27:59;;;;;;;;;7.40;6.60;;;;;20.15;40.78;101551.97;4959637;28;46619;-54
2022/06/14 01:30:27;;;;;;;;;7.25;6.00;;;;;20.22;41.02;101556.53;4974949;28;45316;-51
2022/06/14 01:33:02;;;;;;;;;5.00;5.00;;;;;20.15;40.99;101551.97;4976369;28;45507;-52
2022/06/14 01:35:32;;;;;;;;;4.20;4.20;;;;;20.03;41.01;101535.34;4959849;28;45362;-57
2022/06/14 01:37:58;;;;;;;;;4.40;3.20;;;;;20.00;40.96;101543.38;4959405;28;46608;-52
2022/06/14 01:41:00;;;;;;;;;3.25;3.25;;;;;19.99;41.35;101552.84;4976067;28;45385;-53
2022/06/14 01:43:43;;;;;;;;;2.80;2.80;;;;;20.00;41.11;101548.97;4976593;28;45397;-55
2022/06/14 01:46:24;;;;;;;;;4.60;4.60;;;;;19.88;41.79;101547.09;4976798;28;45395;-52
2022/06/14 01:52:30;;;;;;;;;4.20;3.80;;;;;19.67;41.67;101531.16;4976438;28;45249;-52
2022/06/14 01:54:57;;;;;;;;;4.00;4.00;;;;;19.68;41.60;101536.47;4960350;28;45290;-54
2022/06/14 01:57:25;;;;;;;;;4.60;4.00;;;;;19.66;42.01;101533.13;4975630;28;45321;-54
2022/06/14 01:59:51;;;;;;;;;3.00;3.00;;;;;19.71;41.68;101532.34;4974878;28;45613;-49
2022/06/14 02:02:31;;;;;;;;;5.75;5.75;;;;;19.77;41.53;101526.63;4964296;28;45331;-50
2022/06/14 02:05:24;;;;;;;;;3.00;3.00;;;;;19.68;42.05;101528.13;4975726;28;45441;-49
2022/06/14 02:07:52;;;;;;;;;3.00;3.00;;;;;19.61;41.80;101521.91;4974328;28;45831;-54
2022/06/14 02:10:38;;;;;;;;;3.00;3.00;;;;;19.61;41.98;101511.63;4975074;28;46641;-51
2022/06/14 02:13:09;;;;;;;;;5.00;4.00;;;;;19.45;42.22;101520.81;4975018;28;45299;-50
2022/06/14 02:15:41;;;;;;;;;3.80;3.80;;;;;19.26;42.55;101490.44;4958006;28;45379;-49
2022/06/14 02:18:17;;;;;;;;;2.80;2.80;;;;;19.40;42.39;101523.50;4976536;28;45761;-54
2022/06/14 02:21:13;;;;;;;;;4.00;4.00;;;;;19.33;42.51;101513.38;4995198;28;46056;-48
2022/06/14 02:23:43;;;;;;;;;3.00;3.00;;;;;19.33;42.34;101516.16;4998179;28;45411;-51
2022/06/14 02:26:12;;;;;;;;;2.40;2.40;;;;;19.22;42.31;101481.75;4998055;28;45411;-51
2022/06/14 02:28:41;;;;;;;;;2.40;2.20;;;;;19.17;42.53;101500.31;4999883;28;45330;-50
2022/06/14 02:31:12;;;;;;;;;4.20;4.20;;;;;19.34;42.82;101517.00;5030518;28;46600;-55
2022/06/14 02:33:40;;;;;;;;;2.60;2.60;;;;;19.21;42.74;101491.19;5014554;28;45342;-55
2022/06/14 02:36:33;;;;;;;;;3.20;3.20;;;;;19.23;42.71;101482.59;5030864;28;45492;-52
2022/06/14 02:39:23;;;;;;;;;4.40;3.00;;;;;19.43;42.70;101514.66;5028936;28;45409;-51
2022/06/14 02:42:01;;;;;;;;;4.00;3.00;;;;;19.35;42.60;101511.19;4998641;28;46318;-54
2022/06/14 02:44:51;;;;;;;;;3.00;2.00;;;;;19.38;42.63;101518.19;4998728;28;45235;-50
2022/06/14 02:47:32;;;;;;;;;3.00;3.00;;;;;19.27;42.79;101508.84;4998671;28;45447;-52
2022/06/14 02:50:06;;;;;;;;;2.60;2.60;;;;;19.29;42.97;101511.34;5013184;28;45347;-52
2022/06/14 02:53:07;;;;;;;;;3.60;3.40;;;;;19.21;43.09;101518.19;5029631;28;47018;-52
2022/06/14 02:55:54;;;;;;;;;2.40;2.40;;;;;18.90;43.10;101484.22;4998794;28;45452;-49
2022/06/14 02:58:31;;;;;;;;;4.20;4.20;;;;;18.96;43.59;101499.91;5026911;28;45353;-51
2022/06/14 03:01:27;;;;;;;;;5.00;3.80;;;;;18.96;43.96;101511.03;5013437;28;45308;-55
2022/06/14 03:04:00;;;;;;;;;3.60;2.80;;;;;18.93;43.97;101509.59;4992080;28;45829;-53
2022/06/14 03:06:38;;;;;;;;;5.20;4.00;;;;;18.85;44.17;101507.22;5013033;28;45283;-54
2022/06/14 03:09:19;;;;;;;;;3.00;3.00;;;;;18.79;44.39;101497.94;5030011;28;45476;-50
2022/06/14 03:11:50;;;;;;;;;3.00;3.00;;;;;18.87;44.33;101493.91;5013843;28;45442;-51
2022/06/14 03:14:24;;;;;;;;;3.60;2.00;;;;;18.92;44.20;101501.50;5029269;28;45990;-50
2022/06/14 03:16:56;;;;;;;;;4.00;4.00;;;;;18.90;44.21;101500.91;4998236;28;45285;-49
2022/06/14 03:19:26;;;;;;;;;5.60;3.00;;;;;18.89;44.23;101499.22;4990383;28;45383;-52
2022/06/14 03:21:53;;;;;;;;;3.00;3.00;;;;;18.45;44.46;101442.25;4961621;28;45448;-52
2022/06/14 03:24:31;;;;;;;;;3.80;3.00;;;;;18.83;44.19;101504.69;4977292;28;46183;-52
2022/06/14 03:27:09;;;;;;;;;5.20;5.20;;;;;18.79;44.51;101506.25;4953394;28;45365;-55
2022/06/14 03:29:40;;;;;;;;;3.60;3.60;;;;;18.91;44.10;101495.09;4977983;28;45319;-55
2022/06/14 03:32:17;;;;;;;;;5.00;3.40;;;;;18.87;44.06;101495.84;4977383;28;45464;-50
2022/06/14 03:34:54;;;;;;;;;3.20;3.20;;;;;18.59;44.12;101442.81;4977270;28;45741;-52
2022/06/14 03:37:19;;;;;;;;;3.00;3.00;;;;;18.78;44.19;101460.09;4976878;28;45523;-55
2022/06/14 03:39:48;;;;;;;;;4.50;3.00;;;;;18.89;44.16;101463.06;4977120;28;45437;-53
2022/06/14 03:42:14;;;;;;;;;3.20;3.20;;;;;18.99;44.16;101488.28;4961191;28;45364;-50
2022/06/14 03:44:40;;;;;;;;;3.50;3.50;;;;;19.05;44.00;101487.31;4976871;28;46751;-53
2022/06/14 03:47:18;;;;;;;;;3.75;3.75;;;;;18.91;44.14;101483.97;4977896;28;45825;-49
2022/06/14 03:49:57;;;;;;;;;2.60;2.20;;;;;18.73;44.31;101461.94;4978175;28;45415;-52
2022/06/14 03:52:37;;;;;;;;;4.00;4.00;;;;;18.41;44.40;101411.31;4976876;28;45337;-52
2022/06/14 03:55:21;;;;;;;;;2.20;1.00;;;;;18.89;44.37;101486.16;4978027;28;45616;-53
2022/06/14 03:58:41;;;;;;;;;3.00;3.00;;;;;18.82;44.54;101488.25;4976923;28;45361;-54
2022/06/14 04:01:57;;;;;;;;;3.20;3.20;;;;;18.85;44.63;101484.13;4956273;28;45441;-52
2022/06/14 04:04:34;;;;;;;;;5.60;4.80;;;;;18.89;44.22;101488.94;4964761;28;45701;-54
2022/06/14 04:07:02;;;;;;;;;5.40;3.60;;;;;18.70;44.76;101488.31;4961502;28;46050;-52
2022/06/14 04:09:49;;;;;;;;;4.00;3.80;;;;;18.53;45.13;101491.03;4977842;28;45698;-51
2022/06/14 04:12:37;;;;;;;;;4.00;4.00;;;;;18.53;45.52;101491.88;4976884;28;45412;-49
2022/06/14 04:15:25;;;;;;;;;3.80;2.20;;;;;18.68;45.19;101490.50;4978212;28;45350;-49
2022/06/14 04:18:02;;;;;;;;;3.20;3.20;;;;;18.71;45.31;101473.31;4976706;28;46416;-53
2022/06/14 04:20:32;;;;;;;;;6.00;4.80;;;;;18.85;44.89;101498.88;4977250;28;45421;-52
2022/06/14 04:23:21;;;;;;;;;3.00;3.00;;;;;18.95;44.57;101501.00;5029247;28;45844;-54
2022/06/14 04:25:47;;;;;;;;;4.20;3.20;;;;;19.04;44.39;101493.97;4997391;28;45228;-49
2022/06/14 04:28:22;;;;;;;;;3.75;3.25;;;;;18.93;44.78;101475.38;4997144;28;46530;-54
2022/06/14 04:30:59;;;;;;;;;3.60;3.00;;;;;18.97;44.70;101493.25;4997035;28;45223;-52
2022/06/14 04:33:33;;;;;;;;;4.00;4.00;;;;;18.98;44.82;101483.81;5011407;28;45351;-53
2022/06/14 04:36:17;;;;;;;;;5.00;4.20;;;;;18.75;44.67;101471.72;4997658;28;45575;-54
2022/06/14 04:38:47;;;;;;;;;3.80;3.80;;;;;18.71;44.93;101484.44;5010172;28;46557;-55
2022/06/14 04:41:22;;;;;;;;;6.40;4.20;;;;;18.65;44.85;101474.31;4995136;28;45506;-53
2022/06/14 04:43:50;;;;;;;;;4.00;4.00;;;;;18.80;45.47;101493.22;5012262;28;45436;-50
2022/06/14 04:46:19;;;;;;;;;4.00;4.00;;;;;18.78;44.87;101490.69;5029622;28;45298;-50
2022/06/14 04:48:57;;;;;;;;;4.00;4.00;;;;;18.80;44.76;101482.94;4995702;28;45419;-50
2022/06/14 04:51:33;;;;;;;;;5.00;4.20;;;;;18.80;44.65;101490.44;4997280;28;45426;-52
2022/06/14 04:54:08;;;;;;;;;3.00;3.00;;;;;18.80;44.85;101473.75;4997331;28;45332;-50
2022/06/14 04:56:44;;;;;;;;;3.00;3.00;;;;;18.78;44.76;101484.28;5012269;28;45624;-56
2022/06/14 04:59:16;;;;;;;;;6.20;4.00;;;;;18.73;44.87;101484.19;4995839;28;46784;-49
2022/06/14 05:01:46;;;;;;;;;4.00;4.00;;;;;18.79;45.15;101486.81;4995419;28;45387;-52
2022/06/14 05:04:36;;;;;;;;;4.80;4.80;;;;;18.81;45.01;101476.28;5012098;28;45332;-54
2022/06/14 05:07:10;;;;;;;;;3.60;3.60;;;;;18.85;44.43;101470.22;5012205;28;45428;-53
2022/06/14 05:09:41;;;;;;;;;22.60;21.60;;;;;18.93;44.37;101484.56;4995514;28;46270;-54
2022/06/14 05:12:07;;;;;;;;;10.20;8.60;;;;;18.89;44.62;101479.75;5011703;28;45333;-51
2022/06/14 05:14:38;;;;;;;;;6.50;5.75;;;;;18.94;44.62;101471.50;4996889;28;45334;-53
2022/06/14 05:17:10;;;;;;;;;4.40;4.00;;;;;18.86;44.66;101452.44;5011428;28;45852;-50
2022/06/14 05:19:41;;;;;;;;;4.20;4.20;;;;;19.07;44.45;101476.78;5019121;28;46704;-51
2022/06/14 05:22:08;;;;;;;;;5.00;5.00;;;;;19.11;44.27;101477.13;4975545;28;45199;-48
2022/06/14 05:24:34;;;;;;;;;5.60;4.00;;;;;19.06;44.01;101490.94;4977385;28;45298;-52
2022/06/14 05:27:37;;;;;;;;;4.75;4.75;;;;;18.83;44.65;101481.59;4959576;28;45470;-51
2022/06/14 05:30:37;;;;;;;;;5.20;5.20;;;;;18.88;44.46;101475.28;4976617;28;46172;-54
2022/06/14 05:33:52;;;;;;;;;5.00;5.00;;;;;18.75;44.68;101477.28;4925325;28;45461;-54
2022/06/14 05:36:22;;;;;;;;;6.80;5.80;;;;;18.58;44.91;101443.03;4936037;28;45420;-56
2022/06/14 05:38:59;;;;;;;;;4.00;4.00;;;;;18.77;45.10;101483.44;4903946;28;45451;-51
2022/06/14 05:41:53;;;;;;;;;6.00;3.80;;;;;18.82;45.00;101480.75;4954759;28;47025;-51
2022/06/14 05:44:40;;;;;;;;;5.00;5.00;;;;;18.75;44.98;101484.78;4975033;28;45375;-50
2022/06/14 05:47:10;;;;;;;;;6.00;6.00;;;;;18.67;45.01;101484.09;4975580;28;45451;-51
2022/06/14 05:49:38;;;;;;;;;6.20;4.80;;;;;18.81;45.01;101487.41;4975895;28;45349;-52
2022/06/14 05:52:49;;;;;;;;;4.40;4.40;;;;;18.83;44.66;101496.34;4974697;28;46176;-51
2022/06/14 05:55:27;;;;;;;;;5.60;4.00;;;;;18.81;44.88;101481.00;4968968;28;45287;-50
2022/06/14 05:58:03;;;;;;;;;7.80;6.60;;;;;18.97;44.62;101482.13;4975429;28;45366;-50
2022/06/14 06:00:30;;;;;;;;;5.80;4.80;;;;;19.04;44.27;101473.63;4975738;28;45431;-51
2022/06/14 06:03:07;;;;;;;;;4.60;4.60;;;;;19.07;44.26;101479.56;4975143;28;46467;-51
2022/06/14 06:05:32;;;;;;;;;5.40;5.00;;;;;19.12;44.38;101486.31;4975550;28;45435;-49
2022/06/14 06:08:26;;;;;;;;;4.75;4.75;;;;;19.17;44.06;101487.25;4976768;28;45875;-53
2022/06/14 06:10:56;;;;;;;;;5.60;5.20;;;;;19.14;43.88;101481.31;4975316;28;45510;-53
2022/06/14 06:13:30;;;;;;;;;5.20;5.20;;;;;19.23;44.10;101479.81;4976028;28;45706;-55
2022/06/14 06:15:58;;;;;;;;;4.60;4.60;;;;;19.25;43.64;101471.22;4960115;28;45374;-51
2022/06/14 06:18:57;;;;;;;;;7.00;5.40;;;;;19.11;43.95;101466.00;4974909;28;45420;-52
2022/06/14 06:21:46;;;;;;;;;6.20;4.20;;;;;19.29;43.68;101461.25;4939768;28;45528;-52
2022/06/14 06:24:41;;;;;;;;;5.80;5.60;;;;;19.39;43.56;101471.72;4955062;28;45932;-54
2022/06/14 06:27:10;;;;;;;;;6.00;5.00;;;;;19.34;43.76;101464.13;4952972;28;45324;-56
2022/06/14 06:29:41;;;;;;;;;6.80;5.00;;;;;19.41;43.61;101463.97;4956147;28;45501;-52
2022/06/14 06:32:07;;;;;;;;;4.00;4.00;;;;;19.42;43.65;101455.34;4956812;28;45622;-54
2022/06/14 06:34:33;;;;;;;;;7.75;6.50;;;;;19.41;43.39;101458.41;4970875;28;45393;-50
2022/06/14 06:37:18;;;;;;;;;5.00;5.00;;;;;19.40;43.82;101442.78;4956366;28;45423;-54
2022/06/14 06:39:47;;;;;;;;;5.00;5.00;;;;;19.48;43.39;101451.53;4956415;28;45401;-54
2022/06/14 06:42:31;;;;;;;;;5.40;5.00;;;;;19.54;43.61;101459.97;4955831;28;45576;-51
2022/06/14 06:45:15;;;;;;;;;5.60;5.00;;;;;19.60;43.43;101456.19;4956723;28;45749;-55
2022/06/14 06:48:01;;;;;;;;;3.00;3.00;;;;;19.74;43.19;101459.44;4956391;28;45438;-51
2022/06/14 06:50:33;;;;;;;;;4.00;4.00;;;;;19.79;42.75;101465.06;4956184;28;45451;-51
2022/06/14 06:53:05;;;;;;;;;7.00;7.00;;;;;19.78;42.82;101463.38;4956622;28;45565;-51
2022/06/14 06:55:33;;;;;;;;;4.40;4.40;;;;;19.59;42.71;101432.22;4955035;28;46358;-52
2022/06/14 06:58:00;;;;;;;;;6.00;6.00;;;;;19.62;42.64;101446.47;4956133;28;45476;-50
2022/06/14 07:00:25;;;;;;;;;4.00;4.00;;;;;19.78;43.14;101457.81;4955179;28;45470;-53
2022/06/14 07:02:53;;;;;;;;;8.75;5.50;;;;;19.45;42.88;101387.19;4954916;28;45432;-55
2022/06/14 07:05:19;;;;;;;;;3.00;3.00;;;;;19.73;42.75;101424.31;4959374;28;46804;-53
2022/06/14 07:07:44;;;;;;;;;6.00;6.00;;;;;20.02;43.09;101458.44;4959648;28;45375;-51
2022/06/14 07:10:27;;;;;;;;;6.50;5.25;;;;;19.44;42.42;101352.97;4959496;28;45233;-52
2022/06/14 07:13:34;;;;;;;;;5.00;4.80;;;;;19.90;42.46;101433.47;4958638;28;45429;-53
2022/06/14 07:16:05;;;;;;;;;6.00;6.00;;;;;20.10;42.72;101451.59;4937543;28;45861;-52
2022/06/14 07:18:45;;;;;;;;;5.60;4.80;;;;;20.11;42.49;101433.78;4937958;28;45446;-52
2022/06/14 07:21:25;;;;;;;;;5.20;4.80;;;;;20.22;42.38;101445.06;4949767;28;45301;-55
2022/06/14 07:24:04;;;;;;;;;5.00;5.00;;;;;20.17;41.89;101421.59;4942348;28;45448;-50
2022/06/14 07:26:32;;;;;;;;;3.80;3.80;;;;;20.22;42.06;101411.63;4958136;28;46872;-51
2022/06/14 07:29:05;;;;;;;;;6.80;6.80;;;;;20.41;41.45;101442.75;4957839;28;45352;-53
2022/06/14 07:31:50;;;;;;;;;6.80;5.60;;;;;20.46;41.60;101434.44;4958079;28;45384;-51
2022/06/14 07:34:16;;;;;;;;;4.60;4.60;;;;;20.49;41.56;101428.34;4958382;28;45227;-53
2022/06/14 07:37:04;;;;;;;;;6.50;6.50;;;;;20.62;42.02;101435.47;4959080;28;46435;-52
2022/06/14 07:39:56;;;;;;;;;7.20;6.00;;;;;20.69;41.50;101438.88;4958793;28;45536;-47
2022/06/14 07:42:23;;;;;;;;;6.40;4.60;;;;;20.75;41.56;101433.34;4959054;28;45451;-51
2022/06/14 07:45:05;;;;;;;;;4.80;4.80;;;;;20.76;41.26;101433.06;4957404;28;45538;-51
2022/06/14 07:47:51;;;;;;;;;7.80;5.80;;;;;20.72;41.59;101418.81;4957471;28;47184;-51
2022/06/14 07:50:27;;;;;;;;;4.80;4.80;;;;;20.83;41.47;101425.34;4957426;28;45380;-53
2022/06/14 07:53:00;;;;;;;;;5.80;5.80;;;;;20.87;41.19;101427.63;4951655;28;45292;-54
2022/06/14 07:55:35;;;;;;;;;5.60;5.00;;;;;20.69;41.19;101398.97;4959143;28;45887;-55
2022/06/14 07:58:06;;;;;;;;;5.60;4.80;;;;;20.87;41.06;101424.84;4977743;28;46596;-55
2022/06/14 08:03:20;;;;;;;;;5.60;5.60;;;;;20.87;40.80;101419.25;4977163;28;45428;-55
2022/06/14 08:05:46;;;;;;;;;4.80;4.80;;;;;20.88;41.42;101412.56;4977164;28;46029;-54
2022/06/14 08:08:14;;;;;;;;;6.40;5.80;;;;;20.94;41.28;101406.78;4974757;28;46632;-54
2022/06/14 08:10:42;;;;;;;;;5.20;5.20;;;;;20.77;41.56;101373.41;4976531;28;45363;-55
2022/06/14 08:13:09;;;;;;;;;5.20;5.20;;;;;21.07;41.78;101415.81;4976555;28;45465;-53
2022/06/14 08:15:39;;;;;;;;;9.20;7.40;;;;;21.07;41.37;101391.53;4960824;28;45427;-52
2022/06/14 08:18:12;;;;;;;;;8.80;6.80;;;;;21.10;40.61;101387.34;4960394;28;46436;-54
2022/06/14 08:20:44;;;;;;;;;7.20;5.80;;;;;21.30;40.76;101402.56;4991546;28;45310;-52
2022/06/14 08:23:31;;;;;;;;;4.40;3.40;;;;;21.37;40.62;101400.38;5029192;28;45402;-50
2022/06/14 08:26:20;;;;;;;;;7.00;5.60;;;;;21.39;40.38;101396.22;5012053;28;45863;-55
2022/06/14 08:28:49;;;;;;;;;5.40;5.40;;;;;21.45;40.60;101391.50;4997222;28;45453;-53
2022/06/14 08:31:40;;;;;;;;;5.60;4.40;;;;;21.56;40.76;101394.34;4993698;28;45694;-55
2022/06/14 08:34:11;;;;;;;;;5.60;5.60;;;;;21.69;40.36;101393.00;4942458;28;45572;-57
2022/06/14 08:37:06;;;;;;;;;9.00;7.20;;;;;21.76;40.38;101400.06;4974870;28;45617;-50
2022/06/14 08:39:37;;;;;;;;;2.00;1.20;;;;;21.87;40.17;101391.75;4975479;28;45722;-49
2022/06/14 08:42:20;;;;;;;;;5.20;5.20;;;;;21.85;39.63;101392.00;4976310;28;45380;-56
2022/06/14 08:44:45;;;;;;;;;6.60;5.00;;;;;21.98;39.75;101393.44;4976387;28;45355;-55
2022/06/14 08:47:38;;;;;;;;;5.50;4.50;;;;;22.00;39.64;101379.22;4976388;28;45632;-55
2022/06/14 08:50:09;;;;;;;;;6.00;4.20;;;;;22.09;39.35;101377.56;4962592;28;46028;-51
2022/06/14 08:52:45;;;;;;;;;4.80;4.80;;;;;22.18;39.63;101378.72;4976114;28;45273;-51
2022/06/14 08:55:29;;;;;;;;;5.00;5.00;;;;;22.24;38.79;101382.34;4950955;28;45500;-49
2022/06/14 08:58:00;;;;;;;;;6.00;5.20;;;;;22.25;39.21;101386.81;4977854;28;45311;-56
2022/06/14 09:00:55;;;;;;;;;5.60;5.40;;;;;22.29;38.56;101384.31;4975587;28;46133;-53
2022/06/14 09:03:58;;;;;;;;;5.40;4.00;;;;;22.30;38.12;101383.22;4976972;28;45415;-55
2022/06/14 09:06:50;;;;;;;;;6.40;5.40;;;;;22.29;38.24;101373.97;4975917;28;45317;-51
2022/06/14 09:09:34;;;;;;;;;5.40;4.80;;;;;22.39;38.80;101372.31;4976361;28;45519;-55
2022/06/14 09:12:27;;;;;;;;;5.00;5.00;;;;;22.50;37.83;101379.59;4974389;28;46265;-53
2022/06/14 09:15:16;;;;;;;;;5.40;5.00;;;;;22.54;37.63;101386.38;4977132;28;45451;-56
2022/06/14 09:18:00;;;;;;;;;5.60;4.60;;;;;22.63;37.42;101386.66;4976721;28;45292;-52
2022/06/14 09:20:44;;;;;;;;;5.00;5.00;;;;;22.69;37.06;101379.09;4988608;28;45615;-51
2022/06/14 09:23:59;;;;;;;;;5.20;5.20;;;;;22.69;36.39;101379.94;5016439;28;45904;-55
2022/06/14 09:26:40;;;;;;;;;5.00;5.00;;;;;22.55;37.16;101348.88;4944336;28;45517;-55
2022/06/14 09:29:27;;;;;;;;;5.60;5.60;;;;;22.71;37.25;101374.06;4973482;28;45331;-50
2022/06/14 09:32:30;;;;;;;;;5.80;5.80;;;;;22.75;36.80;101364.81;5027487;28;45496;-52
2022/06/14 09:35:14;;;;;;;;;4.20;4.20;;;;;22.67;36.36;101342.19;4991906;28;45780;-52
2022/06/14 09:38:04;;;;;;;;;6.00;6.00;;;;;22.87;36.62;101364.56;4975683;28;45529;-52
2022/06/14 09:40:50;;;;;;;;;5.00;5.00;;;;;22.85;36.42;101340.78;4975353;28;45556;-50
2022/06/14 09:43:42;;;;;;;;;4.40;4.00;;;;;23.06;37.02;101363.13;4992660;28;45465;-52
2022/06/14 09:46:16;;;;;;;;;5.00;5.00;;;;;23.09;36.31;101366.22;4994435;28;46280;-49
2022/06/14 09:48:48;;;;;;;;;4.00;3.20;;;;;23.10;36.95;101353.88;5010272;28;45437;-50
2022/06/14 09:51:38;;;;;;;;;6.60;6.00;;;;;23.15;36.47;101364.22;4975504;28;45315;-54
2022/06/14 09:54:17;;;;;;;;;4.80;3.80;;;;;23.19;36.71;101365.34;4974809;28;45585;-54
2022/06/14 09:56:46;;;;;;;;;6.00;6.00;;;;;23.20;36.47;101347.44;4952796;28;46244;-53
2022/06/14 09:59:30;;;;;;;;;6.00;4.40;;;;;23.32;36.34;101363.94;4957818;28;46000;-56
2022/06/14 10:02:07;;;;;;;;;6.00;6.00;;;;;23.40;36.03;101363.38;4974579;28;45462;-48
2022/06/14 10:04:58;;;;;;;;;2.60;2.60;;;;;23.22;36.44;101328.38;4975677;28;45372;-54
2022/06/14 10:07:53;;;;;;;;;6.40;6.00;;;;;23.46;36.09;101346.53;4973878;28;46697;-50
2022/06/14 10:10:38;;;;;;;;;7.60;7.20;;;;;23.49;35.16;101354.41;4973242;28;45452;-54
2022/06/14 10:13:22;;;;;;;;;6.20;5.80;;;;;23.47;35.55;101351.88;4974088;28;45371;-52
2022/06/14 10:16:12;;;;;;;;;4.00;4.00;;;;;23.35;35.68;101321.38;4950462;28;45808;-55
2022/06/14 10:18:51;;;;;;;;;6.60;5.80;;;;;23.35;35.55;101315.78;4950055;28;46646;-54
2022/06/14 10:21:36;;;;;;;;;7.60;7.60;;;;;23.39;35.29;101318.84;4996603;28;45527;-55
2022/06/14 10:24:36;;;;;;;;;5.00;5.00;;;;;23.59;35.98;101333.91;5016798;28;45399;-53
2022/06/14 10:30:16;;;;;;;;;7.60;6.00;;;;;23.64;35.22;101334.72;4975505;28;45790;-53
2022/06/14 10:32:53;;;;;;;;;6.00;6.00;;;;;23.74;35.50;101342.25;4997839;28;45498;-49
2022/06/14 10:35:32;;;;;;;;;5.20;5.20;;;;;23.76;34.72;101330.75;4990576;28;45537;-52
2022/06/14 10:38:13;;;;;;;;;4.80;4.40;;;;;23.61;35.40;101300.84;5005267;28;45443;-56
2022/06/14 10:40:44;;;;;;;;;9.40;8.40;;;;;23.84;34.57;101330.16;4981806;28;45748;-54
2022/06/14 10:43:36;;;;;;;;;5.00;5.00;;;;;23.89;35.09;101330.13;4971848;28;45786;-49
2022/06/14 10:46:24;;;;;;;;;7.40;7.40;;;;;23.92;34.81;101312.75;4969946;28;45830;-52
2022/06/14 10:49:08;;;;;;;;;5.20;5.00;;;;;24.05;34.29;101321.63;4955908;28;45584;-52
2022/06/14 10:51:42;;;;;;;;;6.40;4.60;;;;;24.06;34.58;101318.56;4954248;28;46103;-51
2022/06/14 10:54:29;;;;;;;;;6.00;6.00;;;;;24.14;34.45;101311.50;4955277;28;45822;-49
2022/06/14 10:57:07;;;;;;;;;6.00;6.00;;;;;24.12;34.28;101308.16;4965512;28;45563;-53
2022/06/14 10:59:50;;;;;;;;;7.40;5.80;;;;;24.02;34.57;101280.16;4975100;28;45488;-55
2022/06/14 11:02:35;;;;;;;;;7.20;6.00;;;;;24.28;35.13;101302.44;4974511;28;45741;-56
2022/06/14 11:05:06;;;;;;;;;6.20;6.20;;;;;24.35;34.54;101295.34;4974457;28;45516;-53
2022/06/14 11:07:40;;;;;;;;;4.20;4.20;;;;;24.43;33.39;101302.31;4974789;28;45918;-54
2022/06/14 11:10:19;;;;;;;;;6.80;5.00;;;;;24.41;33.57;101301.78;4987516;28;45550;-55
2022/06/14 11:12:53;;;;;;;;;7.80;5.40;;;;;24.47;33.17;101291.34;4978471;28;45578;-55
2022/06/14 11:15:49;;;;;;;;;5.40;5.40;;;;;24.50;33.51;101288.78;4969151;28;45608;-53
2022/06/14 11:18:41;;;;;;;;;5.00;5.00;;;;;24.49;33.27;101275.91;4909312;28;46087;-57
2022/06/14 11:21:17;;;;;;;;;8.60;7.00;;;;;24.60;32.57;101287.03;4975304;28;45752;-52
2022/06/14 11:23:56;;;;;;;;;8.80;8.20;;;;;24.54;33.47;101272.22;4972955;28;46223;-53
2022/06/14 11:26:31;;;;;;;;;6.00;6.00;;;;;24.59;33.21;101260.13;4987881;28;45425;-50
2022/06/14 11:29:06;;;;;;;;;8.40;6.60;;;;;24.61;33.20;101252.25;5025789;28;45522;-53
2022/06/14 11:31:47;;;;;;;;;5.80;5.80;;;;;24.68;34.25;101249.91;5011625;28;45416;-51
2022/06/14 11:34:38;;;;;;;;;7.00;7.00;;;;;24.70;34.09;101256.06;4980410;28;46517;-50
2022/06/14 11:37:21;;;;;;;;;6.80;6.80;;;;;24.81;33.85;101254.00;4969468;28;45425;-55
2022/06/14 11:40:12;;;;;;;;;7.00;6.00;;;;;24.83;34.06;101240.53;4975007;28;45505;-53
2022/06/14 11:43:15;;;;;;;;;5.80;4.60;;;;;24.92;33.75;101245.50;4991366;28;45403;-58
2022/06/14 11:45:58;;;;;;;;;8.80;6.80;;;;;24.86;33.35;101233.50;4979149;28;46726;-53
2022/06/14 11:48:32;;;;;;;;;8.00;8.00;;;;;24.90;33.14;101232.59;4972672;28;45938;-57
2022/06/14 11:51:10;;;;;;;;;6.60;5.80;;;;;24.92;32.86;101226.69;4971674;28;45855;-51
2022/06/14 11:53:43;;;;;;;;;6.40;5.00;;;;;24.92;32.99;101215.47;4988918;28;45403;-52
2022/06/14 11:56:11;;;;;;;;;5.40;4.40;;;;;24.99;33.16;101231.94;5023446;28;47078;-56
2022/06/14 11:59:11;;;;;;;;;7.40;6.20;;;;;24.94;33.09;101212.34;4972104;28;45412;-50
2022/06/14 12:01:37;;;;;;;;;7.60;6.20;;;;;24.94;32.87;101195.50;4949903;28;45546;-51
2022/06/14 12:04:36;;;;;;;;;7.25;6.00;;;;;25.17;33.32;101219.09;4972962;28;45485;-54
2022/06/14 12:07:06;;;;;;;;;9.40;6.20;;;;;25.21;32.86;101214.56;4958316;28;45838;-54
2022/06/14 12:10:09;;;;;;;;;5.60;5.20;;;;;25.23;32.58;101212.28;4970441;28;45924;-53
2022/06/14 12:12:46;;;;;;;;;7.40;6.20;;;;;25.34;32.59;101220.56;4971449;28;45556;-50
2022/06/14 12:15:13;;;;;;;;;5.00;5.00;;;;;25.36;32.64;101215.47;4960262;28;45727;-51
2022/06/14 12:17:48;;;;;;;;;5.80;5.60;;;;;25.37;31.95;101206.75;4970401;28;45922;-55
2022/06/14 12:20:18;;;;;;;;;4.40;4.40;;;;;25.42;32.56;101217.09;4960578;28;45504;-55
2022/06/14 12:22:59;;;;;;;;;5.00;5.00;;;;;25.52;31.92;101207.69;4974365;28;45760;-51
2022/06/14 12:28:31;;;;;;;;;6.00;5.80;;;;;25.61;31.92;101189.03;4972245;28;45822;-55